Custom file does not exist C:\wdisplay\webfiles\testtags.txt Borgafjälls vädersida - Nearby METAR Reports

Nearby METAR Reports

 

KSJC - San Jose, California, USA
Distance from station: NO 14km
Uppdaterad: 24/01/2021 07:28
unable to load KSJC data RC=
unable to load KSJC data RC=
 
KNUQ - Moffett Nas/Mtn, California, USA
Distance from station: N 14km
Uppdaterad: 24/01/2021 07:10
Klart
Klart
 Vind frn SSO
Vind: SSO 7 km/h
Temperatur: 8°C
Wind Chill: 7°C
Daggpunkt: 5°C
Luftfuktighet: 82%
Barometer: 1014.9 hPa
Clouds: Klart
Visibility: 16 km
2021/01/24 06:10 KNUQ 240610Z AUTO 16004KT 10SM CLR 08/05 A2997 RMK AO2
 
KPAO - Palo Alto, California, USA
Distance from station: NNV 23km
Uppdaterad: 24/01/2021 05:47
NOT Current
Klart
Klart
 Vind frn SSO
Vind: SSO 6 km/h
Temperatur: 7°C
Daggpunkt: 4°C
Luftfuktighet: 81%
Barometer: 1014.9 hPa
Clouds: Klart
Visibility: 16 km
2021/01/24 04:47 KPAO 240447Z 16003KT 10SM SKC 07/04 A2997 RMK LAST
KRHV - San Jose/Reid, California, USA
Distance from station: ONO 19km
Uppdaterad: 24/01/2021 06:50
Klart
Klart
 Vind frn calm
Vind: Vindstilla
Temperatur: 6°C
Daggpunkt: 3°C
Luftfuktighet: 81%
Barometer: 1015.2 hPa
Clouds: Klart
Visibility: 16 km
2021/01/24 05:50 KRHV 240550Z 00000KT 10SM SKC 06/03 A2998 RMK LAST
 
KOAK - Oakland, California, USA
Distance from station: NNV 50km
Uppdaterad: 24/01/2021 06:53
Klart
Klart
 Vind frn O
Vind: O 9 km/h
Temperatur: 8°C
Wind Chill: 6°C
Daggpunkt: 4°C
Luftfuktighet: 76%
Barometer: 1014.9 hPa
Clouds: Klart
Visibility: 16 km
2021/01/24 05:53 KOAK 240553Z 10005KT 10SM CLR 08/04 A2997 RMK AO2 SLP148 T00830044 10139 20083 53000
KSQL - San Carlos Airpo, California, USA
Distance from station: NV 34km
Uppdaterad: 24/01/2021 07:15
Klart
Klart
 
Temperatur: 6°C
Daggpunkt: 4°C
Luftfuktighet: 87%
Barometer: 1014.9 hPa
Clouds: Klart
Visibility: 16 km
2021/01/24 06:15 KSQL 240615Z AUTO 10SM CLR 06/04 A2997 RMK AO2
 
KSFO - San Francisco, California, USA
Distance from station: NV 49km
Uppdaterad: 24/01/2021 06:56
Klart
Klart
 Vind frn SV
Vind: SV 9 km/h
Temperatur: 9°C
Wind Chill: 7°C
Daggpunkt: 6°C
Luftfuktighet: 82%
Barometer: 1014.6 hPa
Clouds: Klart
Visibility: 16 km
2021/01/24 05:56 KSFO 240556Z 23005KT 10SM CLR 09/06 A2996 RMK AO2 SLP144 T00890056 10128 20089 55000 $
KE16 - San Martin, California, USA
Distance from station: OSO 43km
Uppdaterad: 24/01/2021 07:15
Klart
Klart
 Vind frn calm
Vind: Vindstilla
Temperatur: 5°C
Daggpunkt: 4°C
Luftfuktighet: 93%
Barometer: 1015.9 hPa
Clouds: Klart
Visibility: 16 km
2021/01/24 06:15 KE16 240615Z AUTO 00000KT 10SM CLR 05/04 A3000 RMK AO2
 
KWVI - Watsonville, California, USA
Distance from station: SSO 44km
Uppdaterad: 24/01/2021 06:53
Klart
Klart
 Vind frn N
Vind: N 7 km/h
Temperatur: 5°C
Wind Chill: 3°C
Daggpunkt: 3°C
Luftfuktighet: 87%
Barometer: 1015.2 hPa
Clouds: Klart
Visibility: 16 km
2021/01/24 05:53 KWVI 240553Z AUTO 35004KT 10SM CLR 05/03 A2998 RMK AO2 SLP154 T00500033 10133 20050 53005
KHAF - Half Moon Bay, California, USA
Distance from station: VNV 50km
Uppdaterad: 24/01/2021 07:15
Genommulet
Genommulet
 Vind frn calm
Vind: Vindstilla
Temperatur: 5°C
Daggpunkt: 4°C
Luftfuktighet: 93%
Barometer: 1015.2 hPa
Clouds: Genommulet
Visibility: 14 km
Cloud details: Genommulet 396 m
2021/01/24 06:15 KHAF 240615Z AUTO 00000KT 9SM OVC013 05/04 A2998 RMK AO2
 
KHWD - Hayward, California, USA
Distance from station: N 44km
Uppdaterad: 24/01/2021 06:54
Klart
Klart
 Vind frn ONO
Vind: ONO 6 km/h
Temperatur: 7°C
Daggpunkt: 4°C
Luftfuktighet: 81%
Barometer: 1014.6 hPa
Clouds: Klart
Visibility: 16 km
2021/01/24 05:54 KHWD 240554Z AUTO 07003KT 10SM CLR 07/04 A2996 RMK AO2 SLP156 T00670039 10122 20061 53001
KLVK - Livermore, California, USA
Distance from station: NNO 51km
Uppdaterad: 24/01/2021 06:53
Klart
Klart
 Vind frn calm
Vind: Vindstilla
Temperatur: 5°C
Daggpunkt: 3°C
Luftfuktighet: 87%
Barometer: 1014.6 hPa
Clouds: Klart
Visibility: 16 km
2021/01/24 05:53 KLVK 240553Z AUTO 00000KT 10SM CLR 05/03 A2996 RMK AO2 SLP144 T00500033 10139 20044 51003